Startpagina
METAR-TAF:

METAR-TAF

Vliegvelden :

Rivera, Uruguay

breedte: 30-53S, lengte: 055-32W, hoogte: 205 m

METAR: ontbreekt

Tijdstip: 20:54 (23:54 UTC)

Verwachting

Dit bericht is 39 minuten geleden gemaakt, om 23:15 UTC
Verwachting geldig van 24 om 00 UTC tot 24 om 24 UTC
Wind 7 kt uit het oostnoordoosten
Zicht 10 km of meer
geen wolken onder 1500 m en geen cumulonimbus
Kans 30% :
Tijdelijke
van 24 om 06 UTC tot 24 om 10 UTC
Zicht: 3000 m
nevel

TAF: SURV 232315Z 2400/2424 06007KT CAVOK TX31/2418Z TN15/2410Z PROB30 TEMPO 2406/2410 3000 BR NSC

Waarnemingen en weersverwachtingen van meer dan 4000 vliegvelden (METAR en TAF).

De beschikbare stations zijn de gele en rode punten op de kaart.

Ga met uw muis naar het station om de naam te zien.

Klik dan om waarnemingen en weersverwachtingen te zien.

kaart wijzigen: klik op de groene knoppen met een zwart kruis om in te zoomen, op de groene knop met een streepje om uit te zoomen of op de groene pijlen voor aangrenzende kaarten.


METAR-TAF: